createdAt,value
2023-05-05T00:00:54.001Z,71.77
2023-05-05T00:01:54.017Z,71.77
2023-05-05T00:02:54.012Z,71.67
2023-05-05T00:03:54.004Z,71.56
2023-05-05T00:04:53.978Z,71.56
2023-05-05T00:05:53.945Z,71.56
2023-05-05T00:06:53.933Z,71.56
2023-05-05T00:07:53.891Z,71.56
2023-05-05T00:08:53.930Z,71.56
2023-05-05T00:09:53.895Z,71.46
2023-05-05T00:10:53.892Z,71.26
2023-05-05T00:11:53.870Z,71.36
2023-05-05T00:12:53.913Z,71.36
2023-05-05T00:13:53.864Z,71.26
2023-05-05T00:14:53.922Z,71.15
2023-05-05T00:15:53.835Z,71.15
2023-05-05T00:16:53.910Z,71.05
2023-05-05T00:17:53.838Z,71.15
2023-05-05T00:18:53.797Z,71.15
2023-05-05T00:19:53.796Z,71.15
2023-05-05T00:20:53.846Z,71.19
2023-05-05T00:21:53.761Z,71.26
2023-05-05T00:22:53.767Z,71.15
2023-05-05T00:23:53.731Z,71.19
2023-05-05T00:24:53.729Z,71.15
2023-05-05T00:25:53.788Z,71.29
2023-05-05T00:26:53.728Z,71.15
2023-05-05T00:27:53.679Z,71.09
2023-05-05T00:28:53.679Z,71.05
2023-05-05T00:29:53.694Z,71.09
2023-05-05T00:30:53.699Z,71.29
2023-05-05T00:31:53.679Z,71.19
2023-05-05T00:32:53.676Z,71.19
2023-05-05T00:33:53.626Z,71.19
2023-05-05T00:34:53.649Z,71.29
2023-05-05T00:35:53.696Z,71.19
2023-05-05T00:36:53.644Z,71.19
2023-05-05T00:37:53.595Z,71.19
2023-05-05T00:38:53.585Z,71.19
2023-05-05T00:39:53.809Z,71.19
2023-05-05T00:40:53.584Z,71.29
2023-05-05T00:41:53.559Z,71.29
2023-05-05T00:42:54.244Z,71.29
2023-05-05T00:43:53.611Z,71.29
2023-05-05T00:44:53.542Z,71.19
2023-05-05T00:45:53.529Z,71.19
2023-05-05T00:46:53.593Z,71.29
2023-05-05T00:47:53.585Z,71.19
2023-05-05T00:48:53.576Z,71.09
2023-05-05T00:49:53.525Z,71.19
2023-05-05T00:50:53.469Z,71.19
2023-05-05T00:51:53.430Z,71.29
2023-05-05T00:52:53.441Z,71.29
2023-05-05T00:53:53.476Z,71.29
2023-05-05T00:54:53.460Z,71.29
2023-05-05T00:55:53.398Z,71.19
2023-05-05T00:56:53.408Z,71.19
2023-05-05T00:57:53.448Z,71.19
2023-05-05T00:58:53.409Z,71.29
2023-05-05T00:59:53.421Z,71.39
2023-05-05T01:00:53.373Z,71.39
2023-05-05T01:01:53.392Z,71.29
2023-05-05T01:02:53.462Z,71.39
2023-05-05T01:03:53.495Z,71.39
2023-05-05T01:04:53.345Z,71.39
2023-05-05T01:05:53.332Z,71.39
2023-05-05T01:06:53.371Z,71.39
2023-05-05T01:07:53.333Z,71.39
2023-05-05T01:08:53.271Z,71.39
2023-05-05T01:10:15.278Z,71.50
2023-05-05T01:10:54.239Z,71.50
2023-05-05T01:11:53.263Z,71.42
2023-05-05T01:12:53.421Z,71.63
2023-05-05T01:13:53.200Z,71.63
2023-05-05T01:14:53.217Z,71.63
2023-05-05T01:15:53.315Z,71.63
2023-05-05T01:16:53.215Z,71.63
2023-05-05T01:17:53.274Z,71.63
2023-05-05T01:18:53.184Z,71.63
2023-05-05T01:19:53.168Z,71.83
2023-05-05T01:20:53.169Z,71.73
2023-05-05T01:21:53.169Z,71.73
2023-05-05T01:22:53.215Z,71.73
2023-05-05T01:23:53.107Z,71.63
2023-05-05T01:24:53.118Z,71.83
2023-05-05T01:25:53.141Z,71.83
2023-05-05T01:26:53.853Z,71.94
2023-05-05T01:27:53.069Z,72.04
2023-05-05T01:28:53.177Z,71.94
2023-05-05T01:29:53.241Z,72.04
2023-05-05T01:30:53.118Z,71.94
2023-05-05T01:31:53.186Z,72.04
2023-05-05T01:32:53.022Z,72.04
2023-05-05T01:33:53.106Z,72.14
2023-05-05T01:34:53.115Z,72.04
2023-05-05T01:35:53.081Z,72.14
2023-05-05T01:36:53.008Z,72.17
2023-05-05T01:37:53.017Z,71.94
2023-05-05T01:38:52.970Z,72.04
2023-05-05T01:39:52.947Z,72.04
2023-05-05T01:40:52.935Z,72.04
2023-05-05T01:41:52.911Z,72.04
2023-05-05T01:42:52.950Z,72.07
2023-05-05T01:43:52.976Z,72.07
2023-05-05T01:44:52.898Z,72.17
2023-05-05T01:45:52.950Z,72.28
2023-05-05T01:46:52.928Z,72.28
2023-05-05T01:47:52.951Z,72.28
2023-05-05T01:48:52.900Z,72.28
2023-05-05T01:49:52.889Z,72.38
2023-05-05T01:50:52.814Z,72.48
2023-05-05T01:51:52.935Z,72.38
2023-05-05T01:52:52.867Z,72.48
2023-05-05T01:53:52.815Z,72.48
2023-05-05T01:54:52.805Z,72.48
2023-05-05T01:55:52.789Z,72.58
2023-05-05T01:56:52.763Z,72.58
2023-05-05T01:57:52.766Z,72.58
2023-05-05T01:58:52.737Z,72.58
2023-05-05T01:59:52.737Z,72.58
2023-05-05T02:00:52.770Z,72.58
2023-05-05T02:01:52.744Z,72.58
2023-05-05T02:02:52.769Z,72.62
2023-05-05T02:03:52.716Z,72.72
2023-05-05T02:04:52.741Z,72.62
2023-05-05T02:05:52.663Z,72.72
2023-05-05T02:06:52.680Z,72.72
2023-05-05T02:07:52.668Z,72.72
2023-05-05T02:08:52.643Z,72.62
2023-05-05T02:09:52.657Z,72.72
2023-05-05T02:10:52.624Z,72.72
2023-05-05T02:11:52.719Z,72.72
2023-05-05T02:12:52.686Z,72.72
2023-05-05T02:13:52.836Z,72.72
2023-05-05T02:14:52.617Z,72.72
2023-05-05T02:15:52.611Z,72.72
2023-05-05T02:16:52.623Z,72.62
2023-05-05T02:17:52.695Z,72.52
2023-05-05T02:18:52.570Z,72.62
2023-05-05T02:19:52.545Z,72.52
2023-05-05T02:20:52.533Z,72.62
2023-05-05T02:21:52.510Z,72.62
2023-05-05T02:22:52.497Z,72.62
2023-05-05T02:23:52.505Z,72.62
2023-05-05T02:24:52.538Z,72.62
2023-05-05T02:25:52.512Z,72.52
2023-05-05T02:26:52.527Z,72.52
2023-05-05T02:27:52.489Z,72.52
2023-05-05T02:28:52.447Z,72.52
2023-05-05T02:29:52.449Z,72.52
2023-05-05T02:30:52.445Z,72.41
2023-05-05T02:31:52.694Z,72.41
2023-05-05T02:32:52.447Z,72.52
2023-05-05T02:33:52.493Z,72.52
2023-05-05T02:34:52.381Z,72.41
2023-05-05T02:35:52.390Z,72.41
2023-05-05T02:36:52.408Z,72.41
2023-05-05T02:37:52.368Z,72.31
2023-05-05T02:38:52.370Z,72.31
2023-05-05T02:39:52.406Z,72.21
2023-05-05T02:40:52.330Z,72.21
2023-05-05T02:41:52.289Z,72.21
2023-05-05T02:42:52.950Z,72.21
2023-05-05T02:43:52.300Z,72.31
2023-05-05T02:44:52.293Z,72.11
2023-05-05T02:45:52.342Z,72.00
2023-05-05T02:46:52.282Z,72.21
2023-05-05T02:47:52.255Z,72.11
2023-05-05T02:48:52.177Z,72.11
2023-05-05T02:49:52.254Z,72.21
2023-05-05T02:50:52.178Z,71.90
2023-05-05T02:51:52.303Z,72.00
2023-05-05T02:52:52.168Z,72.00
2023-05-05T02:53:52.106Z,72.00
2023-05-05T02:54:52.103Z,72.11
2023-05-05T02:55:52.187Z,72.11
2023-05-05T02:56:52.113Z,72.11
2023-05-05T02:57:52.103Z,72.21
2023-05-05T02:58:52.080Z,72.00
2023-05-05T02:59:52.131Z,72.11
2023-05-05T03:00:52.050Z,72.11
2023-05-05T03:01:52.133Z,72.21
2023-05-05T03:02:52.108Z,72.21
2023-05-05T03:03:52.322Z,72.31
2023-05-05T03:04:52.001Z,72.21
2023-05-05T03:05:51.987Z,72.31
2023-05-05T03:06:52.003Z,72.21
2023-05-05T03:07:51.965Z,72.21
2023-05-05T03:08:52.020Z,72.31
2023-05-05T03:09:51.989Z,72.21
2023-05-05T03:10:51.973Z,72.31
2023-05-05T03:11:51.962Z,72.41
2023-05-05T03:12:51.968Z,72.55
2023-05-05T03:13:51.993Z,72.52
2023-05-05T03:14:51.923Z,72.65
2023-05-05T03:15:51.908Z,72.55
2023-05-05T03:16:51.918Z,72.65
2023-05-05T03:17:51.967Z,72.55
2023-05-05T03:18:51.922Z,72.55
2023-05-05T03:19:51.853Z,72.65
2023-05-05T03:20:51.882Z,72.45
2023-05-05T03:21:51.891Z,72.55
2023-05-05T03:22:51.901Z,72.55
2023-05-05T03:23:51.824Z,72.65
2023-05-05T03:24:51.944Z,72.55
2023-05-05T03:25:51.813Z,72.65
2023-05-05T03:26:51.759Z,72.55
2023-05-05T03:27:51.796Z,72.65
2023-05-05T03:28:51.774Z,72.75
2023-05-05T03:29:51.752Z,72.65
2023-05-05T03:30:51.757Z,72.75
2023-05-05T03:31:51.758Z,72.75
2023-05-05T03:32:51.783Z,72.96
2023-05-05T03:33:51.705Z,72.86
2023-05-05T03:34:51.961Z,72.96
2023-05-05T03:35:51.709Z,72.96
2023-05-05T03:36:51.709Z,73.06
2023-05-05T03:37:51.676Z,72.96
2023-05-05T03:38:51.686Z,73.16
2023-05-05T03:39:51.675Z,73.16
2023-05-05T03:40:51.648Z,73.27
2023-05-05T03:41:51.720Z,73.16
2023-05-05T03:42:51.626Z,73.27
2023-05-05T03:43:51.658Z,73.27
2023-05-05T03:44:51.594Z,73.16
2023-05-05T03:45:51.596Z,73.36
2023-05-05T03:46:51.596Z,73.30
2023-05-05T03:47:51.617Z,73.36
2023-05-05T03:48:51.586Z,73.36
2023-05-05T03:49:51.511Z,73.36
2023-05-05T03:50:51.544Z,73.36
2023-05-05T03:51:51.540Z,73.47
2023-05-05T03:52:51.552Z,73.50
2023-05-05T03:53:51.488Z,73.50
2023-05-05T03:54:51.473Z,73.61
2023-05-05T03:55:51.488Z,73.40
2023-05-05T03:56:51.468Z,73.50
2023-05-05T03:57:51.468Z,73.50
2023-05-05T03:58:51.458Z,73.50
2023-05-05T03:59:51.448Z,73.50
2023-05-05T04:00:51.464Z,73.50
2023-05-05T04:01:51.402Z,73.40
2023-05-05T04:02:51.525Z,73.61
2023-05-05T04:03:51.442Z,73.50
2023-05-05T04:04:51.388Z,73.50
2023-05-05T04:05:51.453Z,73.50
2023-05-05T04:06:51.366Z,73.50
2023-05-05T04:07:51.353Z,73.61
2023-05-05T04:08:51.415Z,73.61
2023-05-05T04:09:51.366Z,73.61
2023-05-05T04:10:51.312Z,73.61
2023-05-05T04:11:51.334Z,73.61
2023-05-05T04:12:51.462Z,73.50
2023-05-05T04:13:51.337Z,73.61
2023-05-05T04:14:51.284Z,73.61
2023-05-05T04:15:51.275Z,73.50
2023-05-05T04:16:51.247Z,73.71
2023-05-05T04:17:51.264Z,73.50
2023-05-05T04:18:51.262Z,73.50
2023-05-05T04:19:51.242Z,73.50
2023-05-05T04:20:51.207Z,73.47
2023-05-05T04:21:51.260Z,73.40
2023-05-05T04:22:52.727Z,73.36
2023-05-05T04:23:51.184Z,73.20
2023-05-05T04:24:51.258Z,73.27
2023-05-05T04:25:51.182Z,73.27
2023-05-05T04:26:51.203Z,73.16
2023-05-05T04:27:51.157Z,73.16
2023-05-05T04:28:51.170Z,73.06
2023-05-05T04:29:51.151Z,73.06
2023-05-05T04:30:51.193Z,72.96
2023-05-05T04:31:51.105Z,72.96
2023-05-05T04:32:51.149Z,72.75
2023-05-05T04:33:51.089Z,72.86
2023-05-05T04:34:51.089Z,72.75
2023-05-05T04:35:51.103Z,72.65
2023-05-05T04:36:51.176Z,72.45
2023-05-05T04:37:51.063Z,72.41
2023-05-05T04:38:51.119Z,72.31
2023-05-05T04:39:51.082Z,72.11
2023-05-05T04:40:51.126Z,72.11
2023-05-05T04:41:51.807Z,71.80
2023-05-05T04:42:50.999Z,71.80
2023-05-05T04:43:51.004Z,71.80
2023-05-05T04:44:50.988Z,71.59
2023-05-05T04:45:50.971Z,71.59
2023-05-05T04:46:51.068Z,71.36
2023-05-05T04:47:50.986Z,70.75
2023-05-05T04:48:50.932Z,69.76
2023-05-05T04:49:50.939Z,68.16
2023-05-05T04:50:50.873Z,66.91
2023-05-05T04:51:50.905Z,65.92
2023-05-05T04:52:52.555Z,65.31
2023-05-05T04:53:50.898Z,65.31
2023-05-05T04:54:50.846Z,65.31
2023-05-05T04:55:50.887Z,65.42
2023-05-05T04:56:50.862Z,65.65
2023-05-05T04:57:50.881Z,65.99
2023-05-05T04:58:50.804Z,66.06
2023-05-05T04:59:50.858Z,64.90
2023-05-05T05:00:50.794Z,63.96
2023-05-05T05:01:50.790Z,64.29
2023-05-05T05:02:50.933Z,65.22
2023-05-05T05:03:50.814Z,64.17
2023-05-05T05:04:50.769Z,63.09
2023-05-05T05:05:50.782Z,62.48
2023-05-05T05:06:50.849Z,62.58
2023-05-05T05:07:50.740Z,62.24
2023-05-05T05:08:50.705Z,61.83
2023-05-05T05:09:50.792Z,61.10
2023-05-05T05:10:50.821Z,60.36
2023-05-05T05:11:50.700Z,59.41
2023-05-05T05:12:50.715Z,59.72
2023-05-05T05:13:51.063Z,60.28
2023-05-05T05:14:50.661Z,61.97
2023-05-05T05:15:50.654Z,61.20
2023-05-05T05:16:50.820Z,60.46
2023-05-05T05:17:50.675Z,59.54
2023-05-05T05:18:50.637Z,60.18
2023-05-05T05:19:50.588Z,60.36
2023-05-05T05:20:50.626Z,59.31
2023-05-05T05:21:50.743Z,59.01
2023-05-05T05:22:50.570Z,59.52
2023-05-05T05:23:50.556Z,58.88
2023-05-05T05:24:50.568Z,58.91
2023-05-05T05:25:50.630Z,58.88
2023-05-05T05:26:50.542Z,58.14
2023-05-05T05:28:02.302Z,57.50
2023-05-05T05:28:51.560Z,56.90
2023-05-05T05:29:50.543Z,57.40
2023-05-05T05:30:50.570Z,57.86
2023-05-05T05:31:50.635Z,58.50
2023-05-05T05:32:50.488Z,58.58
2023-05-05T05:33:50.541Z,57.93
2023-05-05T05:34:50.425Z,57.84
2023-05-05T05:35:50.411Z,57.76
2023-05-05T05:36:50.451Z,58.37
2023-05-05T05:37:50.401Z,57.93
2023-05-05T05:38:50.407Z,57.12
2023-05-05T05:39:50.419Z,56.77
2023-05-05T05:40:50.384Z,55.83
2023-05-05T05:41:50.483Z,55.52
2023-05-05T05:42:50.360Z,55.50
2023-05-05T05:43:50.363Z,55.35
2023-05-05T05:44:50.406Z,55.45
2023-05-05T05:45:50.331Z,55.65
2023-05-05T05:46:50.327Z,55.58
2023-05-05T05:47:50.356Z,55.55
2023-05-05T05:48:50.410Z,55.45
2023-05-05T05:49:50.277Z,55.25
2023-05-05T05:50:50.291Z,55.45
2023-05-05T05:51:50.245Z,55.04
2023-05-05T05:52:50.360Z,54.82
2023-05-05T05:53:50.211Z,53.98
2023-05-05T05:54:50.213Z,53.25
2023-05-05T05:55:50.299Z,52.21
2023-05-05T05:56:50.279Z,51.78
2023-05-05T05:57:50.218Z,52.11
2023-05-05T05:58:50.208Z,53.30
2023-05-05T05:59:50.235Z,54.11
2023-05-05T06:00:50.696Z,53.98
2023-05-05T06:01:50.250Z,52.08
2023-05-05T06:02:50.238Z,51.45
2023-05-05T06:03:50.288Z,51.05
2023-05-05T06:04:50.164Z,50.82
2023-05-05T06:05:50.312Z,50.21
2023-05-05T06:06:50.245Z,49.48
2023-05-05T06:07:50.118Z,49.38
2023-05-05T06:08:50.104Z,49.21
2023-05-05T06:09:50.200Z,51.35
2023-05-05T06:10:50.079Z,50.64
2023-05-05T06:11:50.191Z,50.62
2023-05-05T06:12:50.060Z,50.97
2023-05-05T06:13:50.096Z,52.46
2023-05-05T06:14:50.017Z,53.58
2023-05-05T06:15:50.099Z,53.17
2023-05-05T06:16:50.056Z,53.07
2023-05-05T06:17:50.053Z,54.44
2023-05-05T06:18:49.986Z,54.49
2023-05-05T06:19:49.977Z,56.26
2023-05-05T06:20:50.082Z,56.47
2023-05-05T06:21:49.929Z,56.26
2023-05-05T06:22:49.984Z,56.37
2023-05-05T06:23:49.928Z,55.96
2023-05-05T06:24:49.949Z,56.06
2023-05-05T06:25:50.032Z,56.57
2023-05-05T06:26:50.098Z,55.32
2023-05-05T06:27:49.928Z,55.17
2023-05-05T06:28:49.877Z,54.74
2023-05-05T06:29:49.848Z,53.98
2023-05-05T06:30:50.118Z,55.66
2023-05-05T06:31:49.856Z,56.49
2023-05-05T06:32:50.166Z,56.90
2023-05-05T06:33:49.873Z,55.96
2023-05-05T06:34:50.122Z,56.19
2023-05-05T06:35:49.858Z,56.82
2023-05-05T06:36:49.876Z,56.57
2023-05-05T06:37:49.795Z,55.27
2023-05-05T06:38:50.143Z,53.52
2023-05-05T06:39:49.738Z,52.86
2023-05-05T06:40:50.132Z,52.06
2023-05-05T06:41:49.773Z,51.22
2023-05-05T06:42:50.093Z,51.55
2023-05-05T06:43:49.734Z,53.22
2023-05-05T06:44:49.705Z,53.83
2023-05-05T06:45:49.724Z,52.46
2023-05-05T06:46:49.756Z,51.53
2023-05-05T06:47:49.689Z,52.08
2023-05-05T06:48:49.656Z,53.12
2023-05-05T06:49:49.673Z,52.99
2023-05-05T06:50:49.672Z,53.02
2023-05-05T06:51:49.713Z,53.45
2023-05-05T06:52:49.607Z,53.42
2023-05-05T06:53:49.605Z,52.69
2023-05-05T06:54:49.596Z,52.36
2023-05-05T06:55:49.841Z,52.15
2023-05-05T06:56:49.690Z,53.02
2023-05-05T06:57:49.683Z,53.32
2023-05-05T06:58:49.563Z,53.75
2023-05-05T06:59:49.548Z,54.05
2023-05-05T07:00:49.563Z,54.28
2023-05-05T07:01:49.587Z,55.02
2023-05-05T07:02:49.524Z,55.76
2023-05-05T07:03:49.605Z,55.96
2023-05-05T07:04:49.494Z,56.29
2023-05-05T07:05:49.746Z,56.26
2023-05-05T07:06:49.478Z,56.57
2023-05-05T07:07:49.457Z,56.24
2023-05-05T07:08:49.470Z,55.96
2023-05-05T07:09:49.525Z,56.16
2023-05-05T07:10:49.414Z,55.96
2023-05-05T07:11:49.437Z,56.39
2023-05-05T07:12:49.514Z,56.60
2023-05-05T07:13:49.516Z,56.80
2023-05-05T07:14:49.398Z,56.80
2023-05-05T07:15:49.357Z,57.00
2023-05-05T07:16:49.401Z,56.90
2023-05-05T07:17:49.435Z,56.67
2023-05-05T07:18:49.358Z,56.90
2023-05-05T07:19:49.345Z,57.21
2023-05-05T07:20:49.323Z,57.41
2023-05-05T07:21:49.311Z,56.98
2023-05-05T07:22:49.320Z,56.80
2023-05-05T07:23:49.297Z,57.41
2023-05-05T07:24:49.870Z,57.51
2023-05-05T07:25:49.323Z,57.21
2023-05-05T07:26:49.310Z,57.18
2023-05-05T07:27:49.308Z,56.98
2023-05-05T07:28:49.264Z,56.77
2023-05-05T07:29:49.238Z,56.87
2023-05-05T07:30:49.455Z,56.85
2023-05-05T07:31:49.526Z,56.74
2023-05-05T07:32:49.663Z,56.54
2023-05-05T07:33:49.403Z,56.34
2023-05-05T07:34:49.366Z,56.65
2023-05-05T07:35:49.960Z,56.44
2023-05-05T07:36:49.382Z,57.08
2023-05-05T07:37:49.295Z,56.74
2023-05-05T07:38:49.345Z,56.65
2023-05-05T07:39:49.316Z,56.54
2023-05-05T07:40:49.254Z,56.77
2023-05-05T07:41:49.601Z,56.98
2023-05-05T07:42:49.396Z,57.08
2023-05-05T07:43:49.847Z,56.67
2023-05-05T07:44:49.067Z,56.98
2023-05-05T07:45:49.165Z,56.85
2023-05-05T07:46:49.172Z,56.74
2023-05-05T07:47:49.339Z,56.54
2023-05-05T07:48:49.090Z,56.74
2023-05-05T07:49:49.125Z,56.44
2023-05-05T07:50:49.009Z,56.21
2023-05-05T07:51:49.190Z,56.21
2023-05-05T07:52:53.946Z,56.11
2023-05-05T07:53:50.294Z,55.80
2023-05-05T07:54:49.113Z,55.91
2023-05-05T07:55:49.049Z,55.91
2023-05-05T07:56:49.063Z,55.91
2023-05-05T07:57:49.189Z,55.80
2023-05-05T07:58:48.904Z,55.80
2023-05-05T07:59:49.276Z,55.80
2023-05-05T08:00:49.294Z,55.78
2023-05-05T08:01:50.313Z,55.50
2023-05-05T08:02:48.967Z,55.71
2023-05-05T08:03:49.023Z,55.91
2023-05-05T08:04:48.968Z,56.11
2023-05-05T08:05:50.620Z,55.80
2023-05-05T08:06:48.850Z,55.58
2023-05-05T08:07:48.852Z,55.78
2023-05-05T08:08:48.863Z,55.88
2023-05-05T08:09:48.806Z,55.78
2023-05-05T08:10:48.784Z,55.68
2023-05-05T08:11:48.793Z,55.76
2023-05-05T08:12:48.782Z,55.22
2023-05-05T08:13:48.862Z,55.02
2023-05-05T08:14:48.755Z,55.02
2023-05-05T08:15:48.918Z,55.15
2023-05-05T08:16:48.741Z,55.32
2023-05-05T08:17:48.836Z,55.32
2023-05-05T08:18:48.729Z,55.12
2023-05-05T08:19:48.730Z,55.63
2023-05-05T08:20:48.840Z,55.73
2023-05-05T08:21:48.686Z,55.40
2023-05-05T08:22:48.686Z,55.17
2023-05-05T08:23:48.694Z,54.76
2023-05-05T08:24:48.700Z,54.36
2023-05-05T08:25:48.627Z,54.64
2023-05-05T08:26:48.664Z,54.23
2023-05-05T08:27:48.620Z,54.33
2023-05-05T08:28:48.742Z,53.80
2023-05-05T08:29:48.582Z,53.40
2023-05-05T08:30:48.595Z,53.32
2023-05-05T08:31:48.672Z,53.93
2023-05-05T08:32:48.655Z,53.42
2023-05-05T08:33:48.615Z,53.42
2023-05-05T08:34:48.535Z,53.63
2023-05-05T08:35:48.534Z,53.63
2023-05-05T08:36:48.536Z,53.52
2023-05-05T08:37:52.625Z,54.16
2023-05-05T08:38:48.530Z,54.56
2023-05-05T08:39:48.525Z,54.76
2023-05-05T08:40:48.525Z,54.66
2023-05-05T08:41:48.483Z,54.74
2023-05-05T08:42:48.601Z,54.23
2023-05-05T08:43:48.444Z,54.13
2023-05-05T08:44:48.413Z,54.03
2023-05-05T08:45:48.468Z,54.00
2023-05-05T08:46:48.579Z,53.50
2023-05-05T08:47:48.492Z,53.38
2023-05-05T08:48:48.413Z,52.97
2023-05-05T08:49:48.464Z,52.87
2023-05-05T08:50:48.409Z,52.26
2023-05-05T08:51:48.373Z,52.46
2023-05-05T08:52:50.651Z,52.67
2023-05-05T08:53:48.383Z,52.34
2023-05-05T08:54:48.321Z,52.44
2023-05-05T08:55:48.376Z,52.56
2023-05-05T08:56:48.381Z,52.67
2023-05-05T08:57:48.301Z,52.56
2023-05-05T08:58:48.318Z,52.76
2023-05-05T08:59:48.304Z,52.67
2023-05-05T09:00:48.309Z,52.54
2023-05-05T09:01:48.275Z,52.44
2023-05-05T09:02:49.104Z,52.21
2023-05-05T09:03:48.336Z,51.50
2023-05-05T09:04:48.274Z,51.40
2023-05-05T09:05:48.260Z,51.83
2023-05-05T09:06:48.197Z,51.93
2023-05-05T09:07:48.252Z,52.14
2023-05-05T09:08:48.232Z,52.11
2023-05-05T09:09:48.234Z,51.50
2023-05-05T09:10:48.334Z,51.61
2023-05-05T09:11:48.420Z,51.91
2023-05-05T09:12:48.238Z,51.81
2023-05-05T09:13:48.198Z,51.91
2023-05-05T09:14:48.607Z,50.98
2023-05-05T09:15:48.142Z,50.67
2023-05-05T09:16:48.279Z,50.47
2023-05-05T09:17:48.116Z,50.45
2023-05-05T09:18:48.157Z,50.04
2023-05-05T09:19:48.152Z,50.55
2023-05-05T09:20:48.095Z,50.45
2023-05-05T09:21:48.054Z,50.55
2023-05-05T09:22:48.051Z,50.75
2023-05-05T09:23:48.035Z,50.42
2023-05-05T09:24:48.035Z,50.04
2023-05-05T09:25:48.018Z,50.65
2023-05-05T09:26:48.037Z,50.45
2023-05-05T09:27:47.997Z,50.12
2023-05-05T09:28:48.103Z,50.45
2023-05-05T09:29:48.005Z,50.62
2023-05-05T09:30:47.993Z,50.32
2023-05-05T09:31:47.964Z,50.32
2023-05-05T09:32:47.985Z,50.32
2023-05-05T09:33:47.940Z,50.02
2023-05-05T09:34:47.974Z,49.92
2023-05-05T09:35:47.937Z,49.41
2023-05-05T09:36:48.087Z,49.82
2023-05-05T09:37:47.935Z,50.45
2023-05-05T09:38:48.032Z,50.22
2023-05-05T09:39:47.920Z,50.02
2023-05-05T09:40:48.181Z,50.20
2023-05-05T09:41:47.875Z,49.90
2023-05-05T09:42:48.025Z,49.39
2023-05-05T09:43:47.841Z,49.79
2023-05-05T09:44:48.193Z,49.69
2023-05-05T09:45:47.864Z,50.20
2023-05-05T09:46:47.918Z,49.57
2023-05-05T09:47:47.991Z,49.44
2023-05-05T09:48:47.962Z,48.92
2023-05-05T09:49:48.047Z,48.64
2023-05-05T09:50:47.811Z,49.07
2023-05-05T09:51:47.792Z,49.47
2023-05-05T09:52:48.151Z,49.44
2023-05-05T09:53:47.751Z,49.16
2023-05-05T09:54:47.707Z,49.99
2023-05-05T09:55:47.711Z,50.42
2023-05-05T09:56:47.718Z,50.50
2023-05-05T09:57:47.700Z,50.50
2023-05-05T09:58:47.745Z,50.30
2023-05-05T09:59:47.681Z,50.27
2023-05-05T10:00:47.782Z,49.77
2023-05-05T10:01:47.705Z,49.35
2023-05-05T10:02:47.699Z,48.84
2023-05-05T10:03:47.671Z,48.72
2023-05-05T10:04:47.702Z,48.61
2023-05-05T10:05:47.706Z,48.84
2023-05-05T10:06:47.590Z,48.54
2023-05-05T10:07:47.687Z,48.74
2023-05-05T10:08:47.605Z,48.61
2023-05-05T10:09:47.744Z,48.32
2023-05-05T10:10:47.595Z,48.44
2023-05-05T10:11:47.547Z,47.94
2023-05-05T10:12:47.659Z,48.34
2023-05-05T10:13:47.577Z,48.24
2023-05-05T10:14:47.502Z,48.84
2023-05-05T10:15:49.035Z,48.44
2023-05-05T10:16:47.692Z,48.34
2023-05-05T10:18:02.278Z,48.64
2023-05-05T10:18:48.544Z,48.84
2023-05-05T10:19:47.471Z,48.72
2023-05-05T10:20:47.418Z,48.94
2023-05-05T10:21:47.536Z,49.15
2023-05-05T10:22:47.573Z,49.12
2023-05-05T10:23:47.416Z,48.72
2023-05-05T10:24:47.421Z,48.82
2023-05-05T10:25:47.396Z,48.92
2023-05-05T10:26:47.422Z,48.82
2023-05-05T10:27:47.446Z,48.84
2023-05-05T10:28:47.346Z,49.24
2023-05-05T10:29:47.455Z,49.24
2023-05-05T10:30:47.320Z,48.52
2023-05-05T10:31:47.476Z,48.74
2023-05-05T10:32:57.366Z,48.72
2023-05-05T10:33:48.459Z,48.61
2023-05-05T10:34:47.351Z,48.41
2023-05-05T10:35:47.361Z,48.19
2023-05-05T10:36:48.232Z,47.99
2023-05-05T10:37:47.282Z,47.99
2023-05-05T10:38:47.330Z,48.09
2023-05-05T10:39:47.294Z,47.89
2023-05-05T10:40:47.301Z,47.69
2023-05-05T10:41:47.319Z,47.79
2023-05-05T10:42:47.410Z,48.09
2023-05-05T10:43:47.207Z,48.09
2023-05-05T10:44:47.347Z,47.97
2023-05-05T10:45:47.258Z,47.04
2023-05-05T10:46:47.227Z,47.04
2023-05-05T10:47:47.238Z,46.94
2023-05-05T10:48:47.312Z,46.73
2023-05-05T10:49:47.134Z,47.04
2023-05-05T10:50:47.406Z,47.34
2023-05-05T10:51:47.138Z,47.56
2023-05-05T10:52:48.118Z,48.09
2023-05-05T10:53:47.181Z,47.49
2023-05-05T10:54:47.234Z,47.77
2023-05-05T10:55:47.096Z,47.36
2023-05-05T10:56:47.148Z,47.34
2023-05-05T10:57:47.117Z,47.34
2023-05-05T10:58:58.846Z,47.34
2023-05-05T10:59:48.044Z,47.02
2023-05-05T11:00:47.026Z,47.22
2023-05-05T11:01:47.070Z,47.32
2023-05-05T11:02:47.012Z,47.02
2023-05-05T11:03:47.070Z,47.14
2023-05-05T11:04:46.975Z,47.04
2023-05-05T11:05:46.975Z,47.44
2023-05-05T11:06:47.157Z,47.14
2023-05-05T11:07:47.022Z,47.12
2023-05-05T11:08:46.991Z,46.72
2023-05-05T11:09:46.985Z,46.01
2023-05-05T11:10:46.926Z,46.54
2023-05-05T11:11:46.943Z,46.84
2023-05-05T11:12:46.961Z,46.94
2023-05-05T11:13:46.875Z,46.84
2023-05-05T11:14:46.903Z,46.81
2023-05-05T11:15:46.946Z,46.39
2023-05-05T11:16:46.930Z,45.81
2023-05-05T11:17:46.893Z,46.61
2023-05-05T11:18:46.890Z,46.59
2023-05-05T11:19:46.797Z,46.09
2023-05-05T11:20:46.830Z,46.07
2023-05-05T11:21:47.001Z,45.77
2023-05-05T11:22:46.773Z,45.67
2023-05-05T11:23:46.762Z,46.19
2023-05-05T11:24:46.897Z,46.39
2023-05-05T11:25:46.790Z,46.09
2023-05-05T11:26:46.866Z,45.57
2023-05-05T11:27:46.728Z,45.67
2023-05-05T11:28:46.746Z,45.65
2023-05-05T11:29:46.742Z,45.34
2023-05-05T11:30:46.792Z,45.04
2023-05-05T11:31:46.748Z,45.37
2023-05-05T11:32:46.661Z,45.89
2023-05-05T11:33:46.732Z,45.69
2023-05-05T11:34:46.670Z,45.71
2023-05-05T11:35:46.679Z,45.91
2023-05-05T11:36:46.664Z,45.59
2023-05-05T11:37:46.610Z,45.69
2023-05-05T11:38:46.648Z,45.59
2023-05-05T11:39:46.642Z,45.41
2023-05-05T11:40:46.648Z,45.81
2023-05-05T11:41:46.632Z,46.41
2023-05-05T11:42:46.674Z,46.31
2023-05-05T11:43:46.605Z,46.11
2023-05-05T11:44:46.609Z,46.09
2023-05-05T11:45:46.566Z,46.31
2023-05-05T11:46:46.950Z,46.41
2023-05-05T11:47:46.812Z,46.01
2023-05-05T11:48:46.555Z,46.22
2023-05-05T11:49:46.539Z,46.01
2023-05-05T11:50:46.533Z,45.91
2023-05-05T11:51:46.634Z,46.22
2023-05-05T11:52:46.450Z,45.89
2023-05-05T11:53:46.546Z,45.67
2023-05-05T11:54:46.533Z,45.37
2023-05-05T11:55:46.456Z,45.26
2023-05-05T11:56:48.529Z,45.69
2023-05-05T11:57:46.496Z,46.09
2023-05-05T11:58:46.409Z,45.69
2023-05-05T11:59:48.385Z,45.59
2023-05-05T12:00:46.402Z,45.49
2023-05-05T12:01:46.422Z,45.49
2023-05-05T12:02:46.488Z,45.59
2023-05-05T12:03:46.522Z,45.17
2023-05-05T12:04:46.379Z,45.04
2023-05-05T12:05:46.337Z,44.95
2023-05-05T12:06:46.497Z,44.95
2023-05-05T12:07:46.470Z,45.06
2023-05-05T12:08:46.296Z,45.26
2023-05-05T12:09:46.291Z,44.96
2023-05-05T12:10:46.294Z,45.47
2023-05-05T12:11:46.246Z,45.17
2023-05-05T12:12:46.331Z,45.26
2023-05-05T12:13:46.391Z,45.17
2023-05-05T12:14:46.261Z,45.89
2023-05-05T12:15:46.222Z,45.87
2023-05-05T12:16:46.307Z,45.87
2023-05-05T12:17:46.370Z,45.77
2023-05-05T12:18:46.200Z,45.67
2023-05-05T12:19:46.227Z,45.54
2023-05-05T12:20:46.223Z,45.54
2023-05-05T12:21:46.161Z,45.34
2023-05-05T12:22:46.237Z,45.34
2023-05-05T12:23:46.145Z,45.77
2023-05-05T12:24:46.152Z,45.97
2023-05-05T12:25:46.129Z,46.27
2023-05-05T12:26:46.118Z,45.84
2023-05-05T12:27:46.160Z,45.95
2023-05-05T12:28:46.111Z,45.45
2023-05-05T12:29:46.105Z,45.65
2023-05-05T12:30:46.159Z,45.75
2023-05-05T12:31:46.250Z,45.53
2023-05-05T12:32:46.081Z,45.34
2023-05-05T12:33:46.060Z,45.65
2023-05-05T12:34:46.114Z,45.32
2023-05-05T12:35:46.048Z,45.12
2023-05-05T12:36:46.180Z,45.25
2023-05-05T12:37:46.116Z,45.25
2023-05-05T12:38:46.027Z,45.22
2023-05-05T12:39:45.963Z,45.22
2023-05-05T12:40:46.040Z,45.75
2023-05-05T12:41:45.974Z,45.95
2023-05-05T12:42:46.455Z,45.53
2023-05-05T12:43:45.948Z,44.90
2023-05-05T12:44:45.990Z,44.38
2023-05-05T12:45:45.936Z,44.48
2023-05-05T12:46:46.047Z,44.58
2023-05-05T12:47:45.974Z,44.60
2023-05-05T12:48:48.317Z,44.80
2023-05-05T12:49:45.909Z,45.00
2023-05-05T12:50:45.853Z,44.78
2023-05-05T12:51:45.859Z,44.50
2023-05-05T12:52:45.848Z,44.90